Time;durP1;ratioP1;P1;durP2;ratioP2;P2;SDS_P1;SDS_P2;PMS_P1;PMS_P2;Temp;Humidity;BMP_temperature;BMP_pressure;BME280_temperature;BME280_humidity;BME280_pressure;Samples;Min_cycle;Max_cycle;Signal;HPM_P1;HPM_P2
2023/02/19 00:01:39;;;;;;;12.50;6.53;;;;;;;-0.99;52.12;97785.66;4967793;28;20050;-68
2023/02/19 00:04:12;;;;;;;10.20;6.07;;;;;;;-1.34;51.71;97842.50;4998947;28;20448;-68
2023/02/19 00:06:38;;;;;;;15.77;8.93;;;;;;;-1.55;52.18;97815.63;5015717;28;20056;-73
2023/02/19 00:09:04;;;;;;;12.00;6.53;;;;;;;-1.49;52.85;97790.91;4983400;28;20076;-68
2023/02/19 00:11:32;;;;;;;13.87;7.10;;;;;;;-1.16;52.47;97801.91;4967025;28;20045;-68
2023/02/19 00:13:59;;;;;;;24.63;8.67;;;;;;;-1.48;52.15;97803.78;4983172;28;20053;-68
2023/02/19 00:16:32;;;;;;;12.57;7.20;;;;;;;-1.31;52.79;97777.16;4983184;28;20060;-68
2023/02/19 00:18:58;;;;;;;16.43;7.97;;;;;;;-1.05;52.28;97801.81;4966982;28;20053;-68
2023/02/19 00:21:25;;;;;;;12.33;7.13;;;;;;;-1.19;51.84;97793.50;4966805;28;20080;-67
2023/02/19 00:23:59;;;;;;;14.87;7.70;;;;;;;-0.99;52.54;97809.09;4983028;28;20060;-69
2023/02/19 00:26:25;;;;;;;15.87;8.90;;;;;;;-1.40;52.07;97780.53;4983004;28;20053;-69
2023/02/19 00:28:52;;;;;;;16.50;7.87;;;;;;;-1.26;52.40;97790.59;4983046;28;20046;-68
2023/02/19 00:31:26;;;;;;;13.80;7.73;;;;;;;-0.85;52.65;97780.09;4999226;28;20139;-68
2023/02/19 00:33:57;;;;;;;13.10;7.07;;;;;;;-1.54;52.55;97786.09;4966747;28;20099;-68
2023/02/19 00:36:23;;;;;;;13.10;6.63;;;;;;;-1.45;53.02;97777.50;4983057;28;20163;-68
2023/02/19 00:38:50;;;;;;;18.13;7.97;;;;;;;-1.26;52.62;97801.00;4999079;28;20045;-69
2023/02/19 00:41:20;;;;;;;15.23;7.37;;;;;;;-0.81;52.23;97780.63;4966303;28;20037;-69
2023/02/19 00:43:49;;;;;;;18.70;8.38;;;;;;;-0.73;51.98;97779.03;4983097;28;20501;-69
2023/02/19 00:46:22;;;;;;;17.83;8.20;;;;;;;-0.47;52.02;97777.56;4998553;28;20478;-69
2023/02/19 00:48:57;;;;;;;16.03;8.20;;;;;;;-0.63;52.53;97764.22;4967003;28;20037;-69
2023/02/19 00:51:25;;;;;;;18.20;8.27;;;;;;;-0.90;51.86;97784.03;4966256;28;20132;-69
2023/02/19 00:53:51;;;;;;;18.70;9.40;;;;;;;-1.37;51.87;97772.47;4982877;28;20136;-69
2023/02/19 00:56:17;;;;;;;15.77;8.00;;;;;;;-1.51;52.05;97779.78;4976497;28;20140;-69
2023/02/19 00:58:43;;;;;;;23.13;9.20;;;;;;;-1.14;52.53;97773.13;5001751;28;20041;-69
2023/02/19 01:01:11;;;;;;;17.03;8.30;;;;;;;-1.27;52.74;97762.91;4986305;28;20095;-69
2023/02/19 01:03:38;;;;;;;20.63;9.67;;;;;;;-1.15;52.14;97754.06;5002684;28;20040;-70
2023/02/19 01:06:06;;;;;;;19.93;10.47;;;;;;;-1.01;52.81;97743.28;4985524;28;20047;-70
2023/02/19 01:08:33;;;;;;;18.10;9.07;;;;;;;-1.05;52.78;97751.50;5016697;28;20045;-71
2023/02/19 01:11:01;;;;;;;17.30;9.13;;;;;;;-1.21;52.89;97767.59;5000340;28;20060;-69
2023/02/19 01:13:29;;;;;;;17.97;9.40;;;;;;;-1.19;52.83;97739.66;4999618;28;20114;-69
2023/02/19 01:16:07;;;;;;;17.57;9.53;;;;;;;-0.95;53.97;97734.09;5000049;28;20132;-69
2023/02/19 01:18:34;;;;;;;17.57;9.07;;;;;;;-1.20;54.24;97734.59;5032529;28;20072;-71
2023/02/19 01:21:05;;;;;;;20.30;10.30;;;;;;;-0.88;54.00;97719.59;4983869;28;20500;-69
2023/02/19 01:23:31;;;;;;;21.07;10.17;;;;;;;-1.30;53.26;97726.72;5033741;28;20048;-69
2023/02/19 01:25:57;;;;;;;19.37;9.23;;;;;;;-1.44;53.51;97721.88;4985185;28;20048;-69
2023/02/19 01:28:23;;;;;;;21.87;10.20;;;;;;;-1.41;52.97;97737.22;4985102;28;20491;-69
2023/02/19 01:30:49;;;;;;;25.20;9.80;;;;;;;-1.33;53.15;97724.38;5001642;28;20067;-69
2023/02/19 01:33:15;;;;;;;17.40;9.73;;;;;;;-1.65;53.03;97730.66;4984996;28;20037;-69
2023/02/19 01:35:40;;;;;;;18.40;9.17;;;;;;;-1.71;53.18;97734.63;5001242;28;20055;-69
2023/02/19 01:38:07;;;;;;;17.63;8.73;;;;;;;-1.66;53.55;97729.03;5001235;28;20071;-69
2023/02/19 01:40:34;;;;;;;10.43;6.47;;;;;;;-1.79;53.57;97711.84;5017643;28;20551;-69
2023/02/19 01:43:02;;;;;;;15.97;7.53;;;;;;;-1.78;53.73;97702.25;5017722;28;20048;-69
2023/02/19 01:45:32;;;;;;;18.03;8.77;;;;;;;-0.95;54.63;97710.66;5017757;28;20129;-69
2023/02/19 01:48:05;;;;;;;16.25;7.43;;;;;;;-1.16;53.92;97733.34;5034017;28;20055;-69
2023/02/19 01:50:34;;;;;;;19.40;8.70;;;;;;;-1.20;53.43;97716.34;5000922;28;20175;-70
2023/02/19 01:53:01;;;;;;;13.83;8.13;;;;;;;-1.50;54.12;97709.38;4984981;28;20388;-69
2023/02/19 01:55:27;;;;;;;14.67;7.63;;;;;;;-1.79;54.14;97714.44;4984845;28;20041;-68
2023/02/19 01:57:54;;;;;;;17.00;9.47;;;;;;;-1.62;54.07;97726.03;5001101;28;20113;-69
2023/02/19 02:00:20;;;;;;;18.63;9.07;;;;;;;-1.88;53.83;97733.41;5001765;28;20127;-69
2023/02/19 02:02:48;;;;;;;12.47;7.37;;;;;;;-1.69;54.31;97718.88;4985723;28;20045;-68
2023/02/19 02:05:44;;;;;;;16.50;7.80;;;;;;;-1.20;54.29;97706.75;5018071;28;20064;-73
2023/02/19 02:10:56;;;;;;;13.67;6.97;;;;;;;-1.64;54.10;97706.28;5003017;28;20045;-68
2023/02/19 02:13:22;;;;;;;16.07;7.77;;;;;;;-1.64;53.62;97701.91;5000748;28;20060;-68
2023/02/19 02:16:32;;;;;;;16.43;8.33;;;;;;;-1.11;53.79;97718.16;5010664;28;20044;-70
2023/02/19 02:19:16;;;;;;;14.30;7.28;;;;;;;-1.16;54.22;97710.75;5004587;28;20209;-69
2023/02/19 02:21:52;;;;;;;15.93;7.67;;;;;;;-0.92;54.02;97723.44;5005189;28;20048;-69
2023/02/19 02:24:38;;;;;;;19.20;8.03;;;;;;;-1.00;53.77;97711.06;5020888;28;20056;-69
2023/02/19 02:27:10;;;;;;;13.83;7.73;;;;;;;-1.12;53.55;97727.75;5004364;28;20132;-70
2023/02/19 02:30:04;;;;;;;11.87;7.10;;;;;;;-0.98;54.17;97705.72;5004351;28;20052;-70
2023/02/19 02:32:52;;;;;;;11.00;6.60;;;;;;;-1.13;53.78;97697.47;5004412;28;20385;-70
2023/02/19 02:35:25;;;;;;;12.57;6.93;;;;;;;-0.89;54.16;97692.72;4988497;28;20545;-70
2023/02/19 02:37:54;;;;;;;12.33;6.30;;;;;;;-1.39;54.04;97698.06;5007136;28;20473;-68
2023/02/19 02:40:20;;;;;;;10.03;6.17;;;;;;;-1.68;54.03;97697.09;4984774;28;20056;-68
2023/02/19 02:42:46;;;;;;;10.37;6.40;;;;;;;-1.50;53.35;97709.38;5017063;28;20041;-73
2023/02/19 02:45:33;;;;;;;12.40;6.77;;;;;;;-1.00;53.48;97695.41;4985161;28;20045;-69
2023/02/19 02:48:22;;;;;;;11.93;7.27;;;;;;;-1.10;53.08;97689.38;5017194;28;20045;-70
2023/02/19 02:50:54;;;;;;;9.30;5.87;;;;;;;-1.13;53.23;97688.81;5016732;28;20475;-70
2023/02/19 02:56:10;;;;;;;16.17;7.03;;;;;;;-1.17;52.66;97677.84;5002860;28;20045;-70
2023/02/19 02:58:36;;;;;;;10.57;6.50;;;;;;;-1.17;51.92;97690.06;5000382;28;20140;-70
2023/02/19 03:04:36;;;;;;;11.80;6.80;;;;;;;-1.09;53.18;97677.19;5000538;28;20057;-69
2023/02/19 03:07:07;;;;;;;14.00;7.13;;;;;;;-0.96;52.91;97677.75;5016664;28;20102;-70
2023/02/19 03:09:39;;;;;;;11.60;7.13;;;;;;;-1.40;52.94;97676.41;4984157;28;20041;-70
2023/02/19 03:20:38;;;;;;;4.97;3.60;;;;;;;-1.50;54.34;97675.53;5002483;28;20049;-70
2023/02/19 03:23:05;;;;;;;3.03;2.83;;;;;;;-1.46;54.46;97668.31;5000391;28;20051;-69
2023/02/19 03:31:18;;;;;;;1.47;1.47;;;;;;;-1.19;54.35;97666.75;5002642;28;20041;-70
2023/02/19 03:33:47;;;;;;;1.07;1.07;;;;;;;-1.26;54.16;97664.81;4983927;28;20071;-69
2023/02/19 03:36:14;;;;;;;2.90;2.30;;;;;;;-1.75;54.60;97663.78;4999740;28;20704;-69
2023/02/19 03:38:48;;;;;;;1.23;1.23;;;;;;;-1.19;54.69;97663.31;4999753;28;20045;-69
2023/02/19 03:41:30;;;;;;;1.47;1.47;;;;;;;-0.96;54.29;97629.09;5016556;28;20052;-69
2023/02/19 03:44:05;;;;;;;2.50;2.33;;;;;;;-0.64;54.44;97653.09;5015464;28;20083;-69
2023/02/19 03:46:46;;;;;;;1.83;1.73;;;;;;;-1.00;54.39;97632.09;5032257;28;20045;-70
2023/02/19 03:49:40;;;;;;;2.57;2.37;;;;;;;-0.65;53.74;97654.06;4983278;28;20412;-70
2023/02/19 03:52:29;;;;;;;1.10;1.10;;;;;;;-0.87;54.00;97646.50;4990354;28;20053;-69
2023/02/19 03:55:13;;;;;;;1.93;1.83;;;;;;;-0.68;53.70;97648.31;4999215;28;20095;-68
2023/02/19 03:58:07;;;;;;;0.90;0.90;;;;;;;-0.88;54.00;97667.50;4982968;28;20923;-69
2023/02/19 04:00:40;;;;;;;1.67;1.57;;;;;;;-1.74;53.91;97652.44;4983233;28;20103;-68
2023/02/19 04:03:15;;;;;;;2.70;2.50;;;;;;;-1.06;54.23;97643.88;5015490;28;20088;-68
2023/02/19 04:05:46;;;;;;;1.73;1.63;;;;;;;-1.32;54.79;97644.53;4983146;28;20138;-68
2023/02/19 04:08:18;;;;;;;;;;;;;;;-0.95;54.55;97643.75;5016203;28;20397;-69
2023/02/19 04:10:51;;;;;;;1.83;1.73;;;;;;;-1.53;54.47;97647.19;4999048;28;19983;-70
2023/02/19 04:13:21;;;;;;;1.20;1.20;;;;;;;-1.02;54.75;97642.66;4983188;28;20042;-71
2023/02/19 04:15:50;;;;;;;2.03;1.88;;;;;;;-0.82;54.27;97646.94;4999068;28;20103;-67
2023/02/19 04:18:17;;;;;;;3.07;2.77;;;;;;;-1.09;54.13;97644.13;4998852;28;20045;-68
2023/02/19 04:20:45;;;;;;;2.73;2.27;;;;;;;-1.15;53.87;97649.88;4998207;28;20334;-68
2023/02/19 04:23:12;;;;;;;1.40;1.30;;;;;;;-0.95;53.72;97629.91;5015006;28;20049;-68
2023/02/19 04:25:39;;;;;;;2.30;2.07;;;;;;;-1.01;53.75;97639.09;4982266;28;20041;-68
2023/02/19 04:28:06;;;;;;;1.13;1.13;;;;;;;-1.03;54.52;97634.97;4998795;28;20107;-67
2023/02/19 04:30:32;;;;;;;1.97;1.87;;;;;;;-1.24;53.71;97627.25;5014951;28;20198;-68
2023/02/19 04:32:58;;;;;;;2.33;2.13;;;;;;;-1.47;53.31;97638.84;4982445;28;20528;-69
2023/02/19 04:35:25;;;;;;;3.93;2.20;;;;;;;-1.02;53.86;97629.63;4982633;28;20052;-69
2023/02/19 04:37:51;;;;;;;1.10;1.10;;;;;;;-1.39;53.49;97630.38;4999008;28;20429;-68
2023/02/19 04:40:18;;;;;;;1.60;1.50;;;;;;;-1.56;54.46;97631.84;4998806;28;20069;-71
2023/02/19 04:42:45;;;;;;;2.00;1.80;;;;;;;-1.68;54.23;97643.28;4998572;28;20092;-67
2023/02/19 04:45:10;;;;;;;1.40;1.40;;;;;;;-1.82;54.41;97641.03;4998760;28;20045;-67
2023/02/19 04:47:36;;;;;;;2.93;1.60;;;;;;;-1.45;54.02;97628.28;4982028;28;20107;-68
2023/02/19 04:50:03;;;;;;;1.43;1.43;;;;;;;-1.07;54.47;97628.38;4998314;28;20389;-68
2023/02/19 04:52:29;;;;;;;2.23;1.47;;;;;;;-1.52;53.99;97627.19;4998158;28;20457;-68
2023/02/19 04:54:55;;;;;;;1.80;1.70;;;;;;;-1.49;53.94;97632.13;4998260;28;20140;-69
2023/02/19 04:57:21;;;;;;;2.00;1.90;;;;;;;-1.68;54.56;97627.69;4999923;28;20491;-69
2023/02/19 04:59:46;;;;;;;1.83;1.73;;;;;;;-1.56;54.52;97629.22;4982467;28;20045;-68
2023/02/19 05:02:12;;;;;;;1.43;1.33;;;;;;;-1.71;54.29;97625.34;4982252;28;20143;-73
2023/02/19 05:04:38;;;;;;;1.93;1.83;;;;;;;-1.57;54.04;97619.78;4994890;28;20062;-70
2023/02/19 05:07:04;;;;;;;1.43;1.33;;;;;;;-1.48;53.91;97619.00;4978461;28;20141;-68
2023/02/19 05:09:29;;;;;;;1.70;1.60;;;;;;;-1.58;54.31;97615.50;4978854;28;20128;-67
2023/02/19 05:11:55;;;;;;;2.20;2.07;;;;;;;-1.71;54.35;97620.16;4995384;28;20136;-71
2023/02/19 05:14:21;;;;;;;2.30;2.10;;;;;;;-1.72;54.81;97628.88;4979121;28;20096;-70
2023/02/19 05:16:47;;;;;;;1.73;1.67;;;;;;;-1.60;54.62;97608.81;4978751;28;20049;-69
2023/02/19 05:19:13;;;;;;;1.73;1.63;;;;;;;-1.62;55.10;97618.50;4994576;28;20092;-70
2023/02/19 05:21:39;;;;;;;1.93;1.83;;;;;;;-1.69;54.81;97623.41;4978589;28;20038;-69
2023/02/19 05:24:06;;;;;;;1.73;1.63;;;;;;;-1.53;55.14;97610.75;4978389;28;20046;-69
2023/02/19 05:26:33;;;;;;;1.03;1.03;;;;;;;-1.39;54.96;97607.78;4979239;28;20060;-69
2023/02/19 05:28:59;;;;;;;1.70;1.60;;;;;;;-1.59;54.96;97619.09;4979188;28;20046;-69
2023/02/19 05:31:26;;;;;;;1.10;1.10;;;;;;;-1.33;55.40;97609.00;4995480;28;20060;-75
2023/02/19 05:33:54;;;;;;;1.60;1.50;;;;;;;-1.00;54.62;97606.06;4979135;28;20042;-70
2023/02/19 05:36:20;;;;;;;1.57;1.47;;;;;;;-0.89;54.04;97593.72;4994344;28;20054;-70
2023/02/19 05:38:47;;;;;;;2.27;2.17;;;;;;;-1.21;54.22;97603.56;4994419;28;20052;-70
2023/02/19 05:41:18;;;;;;;1.80;1.70;;;;;;;-0.79;54.52;97597.16;4978148;28;20469;-71
2023/02/19 05:43:45;;;;;;;2.23;2.03;;;;;;;-0.91;54.25;97594.81;5010811;28;20128;-70
2023/02/19 05:46:14;;;;;;;2.07;1.97;;;;;;;-0.80;54.01;97589.47;5011148;28;20050;-70
2023/02/19 05:48:40;;;;;;;1.47;1.47;;;;;;;-1.08;54.53;97591.13;4979195;28;20364;-67
2023/02/19 05:51:08;;;;;;;1.37;1.33;;;;;;;-0.98;54.29;97599.75;4996500;28;20086;-73
2023/02/19 05:53:34;;;;;;;1.77;1.57;;;;;;;-1.62;53.74;97595.94;4998708;28;20046;-71
2023/02/19 05:56:01;;;;;;;2.20;2.10;;;;;;;-1.52;54.15;97578.53;4982442;28;20042;-71
2023/02/19 05:58:30;;;;;;;1.20;1.20;;;;;;;-1.32;54.13;97595.06;4998375;28;20129;-81
2023/02/19 06:00:56;;;;;;;1.60;1.50;;;;;;;-1.21;53.48;97587.94;4982695;28;20042;-68
2023/02/19 06:03:22;;;;;;;1.13;1.10;;;;;;;-1.69;54.28;97626.00;4999107;28;20050;-75
2023/02/19 06:05:47;;;;;;;1.03;1.03;;;;;;;-1.16;54.48;97593.56;4985449;28;20160;-74
2023/02/19 06:08:14;;;;;;;1.43;1.43;;;;;;;-1.12;53.88;97609.75;5018457;28;20044;-72
2023/02/19 06:10:40;;;;;;;4.30;3.07;;;;;;;-1.58;53.68;97604.31;5002499;28;20389;-68
2023/02/19 06:13:09;;;;;;;1.50;1.43;;;;;;;-1.12;54.17;97601.94;5001701;28;20049;-67
2023/02/19 06:15:36;;;;;;;2.20;1.97;;;;;;;-1.40;54.58;97611.34;5018831;28;20041;-68
2023/02/19 06:18:03;;;;;;;1.50;1.40;;;;;;;-1.27;54.85;97603.25;5021010;28;20048;-68
2023/02/19 06:20:29;;;;;;;4.40;1.80;;;;;;;-1.41;54.19;97596.66;5021633;28;20055;-68
2023/02/19 06:22:55;;;;;;;1.47;1.37;;;;;;;-1.35;57.66;97588.31;5004909;28;20045;-67
2023/02/19 06:25:21;;;;;;;1.27;1.27;;;;;;;-1.68;56.54;97606.03;5004289;28;20103;-68
2023/02/19 06:27:47;;;;;;;1.80;1.70;;;;;;;-1.29;55.61;97584.38;5021060;28;20049;-69
2023/02/19 06:30:12;;;;;;;1.17;1.17;;;;;;;-1.44;54.64;97614.31;5004883;28;20060;-68
2023/02/19 06:32:38;;;;;;;1.97;1.87;;;;;;;-1.35;54.37;97577.09;4987943;28;20428;-68
2023/02/19 06:35:04;;;;;;;1.63;1.53;;;;;;;-1.34;54.41;97591.75;5020614;28;20135;-67
2023/02/19 06:37:30;;;;;;;1.50;1.50;;;;;;;-1.07;54.36;97600.56;4988117;28;20045;-71
2023/02/19 06:39:56;;;;;;;2.13;2.03;;;;;;;-0.96;54.06;97597.00;5004650;28;20388;-69
2023/02/19 06:42:21;;;;;;;1.80;1.70;;;;;;;-0.61;53.61;97579.84;4987732;28;20136;-68
2023/02/19 06:44:47;;;;;;;1.87;1.70;;;;;;;-0.51;52.87;97588.47;5004079;28;20074;-69
2023/02/19 06:47:13;;;;;;;0.87;0.87;;;;;;;-0.69;51.98;97586.72;5020473;28;20056;-67
2023/02/19 06:49:39;;;;;;;2.13;1.63;;;;;;;-0.43;51.99;97587.81;4987955;28;20041;-68
2023/02/19 06:52:05;;;;;;;3.07;1.83;;;;;;;-0.40;52.21;97583.09;4988132;28;20044;-68
2023/02/19 06:54:32;;;;;;;8.20;2.07;;;;;;;-0.47;52.28;97573.38;5020572;28;20500;-69
2023/02/19 06:56:58;;;;;;;1.13;1.13;;;;;;;-0.22;52.80;97565.78;4988479;28;20037;-70
2023/02/19 06:59:24;;;;;;;1.63;1.53;;;;;;;-0.23;51.22;97571.94;5020652;28;20056;-72
2023/02/19 07:01:50;;;;;;;1.00;1.00;;;;;;;-0.27;51.30;97570.59;4987605;28;20144;-74
2023/02/19 07:04:16;;;;;;;3.00;2.10;;;;;;;-0.44;51.62;97581.75;5003504;28;20147;-71
2023/02/19 07:06:42;;;;;;;1.77;1.67;;;;;;;-0.35;51.92;97565.25;5019922;28;20448;-71
2023/02/19 07:09:08;;;;;;;3.10;2.30;;;;;;;-0.27;51.23;97561.94;5003888;28;20359;-73
2023/02/19 07:11:36;;;;;;;2.47;2.27;;;;;;;-0.17;51.79;97560.94;4987761;28;20138;-73
2023/02/19 07:14:04;;;;;;;7.17;2.93;;;;;;;-0.11;51.02;97564.78;5004431;28;20036;-75
2023/02/19 07:16:30;;;;;;;1.73;1.63;;;;;;;-0.18;51.25;97561.09;5020416;28;20449;-72
2023/02/19 07:18:57;;;;;;;2.60;2.40;;;;;;;0.29;51.94;97556.66;5003592;28;20048;-72
2023/02/19 07:21:23;;;;;;;1.97;1.83;;;;;;;-0.44;50.74;97555.69;5036197;28;20122;-73
2023/02/19 07:23:49;;;;;;;1.63;1.53;;;;;;;-0.59;51.79;97545.81;4987030;28;20068;-67
2023/02/19 07:26:16;;;;;;;2.17;1.93;;;;;;;-0.44;51.55;97536.59;5003489;28;20485;-70
2023/02/19 07:28:47;;;;;;;2.00;1.90;;;;;;;-0.11;52.39;97536.09;5003144;28;20036;-74
2023/02/19 07:31:17;;;;;;;7.72;1.90;;;;;;;-0.52;52.16;97526.03;5003433;28;20526;-76
2023/02/19 07:33:45;;;;;;;2.30;1.92;;;;;;;-0.52;52.36;97536.47;5020712;28;20051;-75
2023/02/19 07:36:13;;;;;;;1.53;1.43;;;;;;;-0.59;52.02;97548.44;5022203;28;20063;-74
2023/02/19 07:38:39;;;;;;;2.00;1.90;;;;;;;-0.80;51.84;97537.38;5012620;28;20041;-74
2023/02/19 07:41:07;;;;;;;1.80;1.70;;;;;;;-0.49;53.29;97537.03;5023950;28;20637;-76
2023/02/19 07:43:34;;;;;;;2.33;2.20;;;;;;;-0.13;52.04;97540.63;5028596;28;20487;-74
2023/02/19 07:46:05;;;;;;;1.73;1.60;;;;;;;0.03;52.47;97529.59;5046013;28;20055;-76
2023/02/19 07:48:31;;;;;;;3.73;2.13;;;;;;;-0.01;52.61;97532.47;5010253;28;20112;-74
2023/02/19 07:50:58;;;;;;;1.90;1.80;;;;;;;-0.02;51.29;97543.06;5019828;28;20127;-74
2023/02/19 07:53:25;;;;;;;2.17;2.07;;;;;;;-0.53;51.42;97535.66;5039543;28;20052;-75
2023/02/19 07:55:51;;;;;;;4.13;1.97;;;;;;;-0.37;52.83;97522.06;5040116;28;20044;-76
2023/02/19 07:58:18;;;;;;;2.03;1.93;;;;;;;-0.09;52.09;97529.75;5055806;28;20044;-74
2023/02/19 08:00:44;;;;;;;1.30;1.30;;;;;;;0.03;51.62;97527.81;5022838;28;20138;-73
2023/02/19 08:03:10;;;;;;;2.37;2.27;;;;;;;-0.19;51.28;97528.16;5022694;28;20090;-72
2023/02/19 08:05:38;;;;;;;1.53;1.50;;;;;;;0.10;52.09;97533.25;5002847;28;20136;-69
2023/02/19 08:08:12;;;;;;;2.47;1.90;;;;;;;0.50;51.87;97520.66;5052541;28;20395;-73
2023/02/19 08:13:24;;;;;;;1.67;1.60;;;;;;;0.54;51.87;97516.81;5021350;28;20051;-76
2023/02/19 08:15:56;;;;;;;1.60;1.50;;;;;;;1.00;51.48;97521.84;5053168;28;20045;-73
2023/02/19 08:18:23;;;;;;;1.80;1.70;;;;;;;0.89;51.43;97511.59;5052237;28;20096;-72
2023/02/19 08:20:50;;;;;;;2.57;2.00;;;;;;;0.33;50.78;97537.13;5052209;28;20044;-75
2023/02/19 08:23:16;;;;;;;1.57;1.47;;;;;;;0.25;50.60;97495.28;5019083;28;20047;-71
2023/02/19 08:25:43;;;;;;;2.70;2.50;;;;;;;0.38;51.50;97508.78;5002770;28;20047;-74
2023/02/19 08:28:10;;;;;;;1.90;1.60;;;;;;;0.84;51.68;97512.06;5018986;28;20045;-77
2023/02/19 08:30:37;;;;;;;1.20;1.20;;;;;;;0.15;50.98;97520.59;5053005;28;20499;-72
2023/02/19 08:33:03;;;;;;;2.47;2.27;;;;;;;0.06;51.84;97521.47;5035598;28;20074;-73
2023/02/19 08:35:29;;;;;;;1.93;1.63;;;;;;;-0.34;51.79;97509.53;5002213;28;20048;-73
2023/02/19 08:37:58;;;;;;;1.80;1.70;;;;;;;0.33;52.43;97514.44;4982024;28;20136;-71
2023/02/19 08:40:25;;;;;;;1.77;1.63;;;;;;;0.45;53.21;97500.22;4963579;28;20037;-75
2023/02/19 08:42:51;;;;;;;2.17;2.07;;;;;;;-0.05;51.98;97510.25;5008698;28;20045;-76
2023/02/19 08:45:17;;;;;;;2.13;1.93;;;;;;;0.00;52.44;97512.44;4998215;28;20060;-74
2023/02/19 08:47:43;;;;;;;2.50;2.30;;;;;;;0.28;53.04;97505.44;5030919;28;20049;-72
2023/02/19 08:50:09;;;;;;;1.43;1.20;;;;;;;0.39;53.15;97490.38;5009970;28;20046;-74
2023/02/19 08:52:35;;;;;;;2.17;2.07;;;;;;;0.66;52.29;97495.53;4995083;28;20052;-73
2023/02/19 08:55:03;;;;;;;2.93;2.63;;;;;;;0.74;51.74;97497.44;5011628;28;20045;-73
2023/02/19 08:57:29;;;;;;;5.13;2.40;;;;;;;0.57;51.59;97509.47;5012227;28;20152;-74
2023/02/19 08:59:56;;;;;;;2.40;2.20;;;;;;;0.87;51.92;97492.63;4994640;28;20540;-74
2023/02/19 09:02:26;;;;;;;6.83;3.13;;;;;;;0.95;51.55;97483.09;4994977;28;20044;-74
2023/02/19 09:04:52;;;;;;;2.17;1.58;;;;;;;0.78;51.71;97489.16;4979339;28;20100;-75
2023/02/19 09:07:19;;;;;;;1.93;1.83;;;;;;;0.63;51.47;97495.03;4995529;28;20188;-74
2023/02/19 09:09:44;;;;;;;3.23;2.07;;;;;;;0.57;51.32;97480.75;5011721;28;20049;-74
2023/02/19 09:12:11;;;;;;;5.30;2.50;;;;;;;0.94;51.29;97493.69;4997770;28;20050;-74
2023/02/19 09:14:37;;;;;;;3.60;1.80;;;;;;;1.08;51.33;97490.50;4982192;28;20037;-74
2023/02/19 09:17:05;;;;;;;2.77;2.07;;;;;;;1.11;50.27;97492.81;4981635;28;20076;-74
2023/02/19 09:19:31;;;;;;;1.47;1.37;;;;;;;0.94;50.36;97478.00;5013794;28;20048;-73
2023/02/19 09:21:58;;;;;;;2.10;1.93;;;;;;;0.80;50.36;97481.97;5014630;28;20049;-75
2023/02/19 09:24:24;;;;;;;3.27;2.40;;;;;;;0.82;50.44;97471.34;4998064;28;20361;-77
2023/02/19 09:26:51;;;;;;;2.10;2.00;;;;;;;1.07;50.73;97470.59;4981837;28;20052;-76
2023/02/19 09:29:19;;;;;;;3.53;2.10;;;;;;;0.90;50.40;97458.38;4999715;28;20049;-77
2023/02/19 09:31:45;;;;;;;1.67;1.57;;;;;;;0.86;50.31;97467.50;4997764;28;20045;-78
2023/02/19 09:34:11;;;;;;;2.83;2.27;;;;;;;0.56;50.28;97470.47;5000474;28;20072;-78
2023/02/19 09:36:37;;;;;;;2.37;2.13;;;;;;;0.82;50.04;97471.34;4983142;28;20484;-74
2023/02/19 09:39:06;;;;;;;1.83;1.70;;;;;;;0.76;50.31;97466.72;5032363;28;20697;-76
2023/02/19 09:41:35;;;;;;;1.57;1.53;;;;;;;0.66;51.04;97456.34;5017789;28;20055;-77
2023/02/19 09:44:03;;;;;;;9.53;3.07;;;;;;;0.85;50.73;97439.69;5050967;28;20095;-77
2023/02/19 09:46:37;;;;;;;1.83;1.73;;;;;;;1.04;50.91;97465.66;5019689;28;20036;-77
2023/02/19 09:49:14;;;;;;;2.57;2.27;;;;;;;1.17;51.15;97458.25;5003880;28;20053;-74
2023/02/19 09:51:43;;;;;;;2.43;2.23;;;;;;;0.99;50.90;97454.84;5018101;28;20060;-73
2023/02/19 09:54:16;;;;;;;3.63;2.33;;;;;;;1.17;50.91;97453.03;5008786;28;20048;-75
2023/02/19 09:56:42;;;;;;;1.63;1.53;;;;;;;0.69;51.63;97450.84;5020197;28;20121;-73
2023/02/19 09:59:18;;;;;;;3.33;1.53;;;;;;;1.22;51.18;97456.81;4989614;28;20136;-75
2023/02/19 10:01:45;;;;;;;1.13;1.13;;;;;;;0.97;50.25;97441.94;5045993;28;20460;-75
2023/02/19 10:04:11;;;;;;;1.97;1.87;;;;;;;0.52;50.56;97446.47;5003815;28;20060;-75
2023/02/19 10:06:38;;;;;;;2.40;1.77;;;;;;;0.73;50.77;97438.31;4991420;28;20120;-75
2023/02/19 10:09:25;;;;;;;1.77;1.67;;;;;;;1.40;50.27;97454.97;5007205;28;20037;-74
2023/02/19 10:11:53;;;;;;;1.50;1.40;;;;;;;1.03;50.07;97446.53;5007507;28;20037;-72
2023/02/19 10:14:48;;;;;;;1.83;1.63;;;;;;;1.33;50.80;97447.91;4990293;28;20136;-76
2023/02/19 10:17:28;;;;;;;2.10;1.87;;;;;;;1.35;50.03;97440.72;5002578;28;20378;-75
2023/02/19 10:19:54;;;;;;;2.23;2.13;;;;;;;0.97;51.01;97441.13;5003145;28;20041;-72
2023/02/19 10:22:20;;;;;;;2.23;2.00;;;;;;;0.68;51.87;97432.69;4990082;28;20187;-76
2023/02/19 10:24:52;;;;;;;2.97;1.93;;;;;;;1.17;52.65;97447.81;4982198;28;20156;-76
2023/02/19 10:27:18;;;;;;;4.03;2.73;;;;;;;0.72;52.12;97439.28;5014358;28;20053;-75
2023/02/19 10:29:46;;;;;;;2.90;2.70;;;;;;;1.22;51.91;97442.91;4997677;28;20046;-76
2023/02/19 10:32:22;;;;;;;1.47;1.40;;;;;;;1.13;52.13;97446.47;5014419;28;20529;-78
2023/02/19 10:35:15;;;;;;;1.10;1.10;;;;;;;1.59;51.43;97448.72;5032692;28;20052;-78
2023/02/19 10:37:47;;;;;;;2.23;2.03;;;;;;;1.42;52.02;97437.34;5000908;28;20057;-76
2023/02/19 10:40:17;;;;;;;4.27;2.77;;;;;;;1.42;52.04;97439.97;5001510;28;20045;-70
2023/02/19 10:42:48;;;;;;;1.83;1.67;;;;;;;1.38;51.91;97435.19;5001163;28;20045;-74
2023/02/19 10:45:47;;;;;;;3.67;2.13;;;;;;;1.70;52.28;97443.22;5017516;28;20104;-74
2023/02/19 10:48:43;;;;;;;1.23;1.17;;;;;;;1.77;51.57;97438.97;4996432;28;20064;-76
2023/02/19 10:51:11;;;;;;;2.63;1.87;;;;;;;1.67;51.44;97441.75;4987389;28;20056;-77
2023/02/19 10:53:51;;;;;;;2.90;2.00;;;;;;;2.34;51.45;97430.34;4984381;28;20045;-72
2023/02/19 10:56:25;;;;;;;1.50;1.40;;;;;;;2.70;50.79;97426.47;5000588;28;20045;-71
2023/02/19 10:58:51;;;;;;;2.73;2.30;;;;;;;2.79;50.65;97435.16;5000329;28;20284;-71
2023/02/19 11:01:20;;;;;;;3.50;1.77;;;;;;;3.42;49.91;97428.22;5009135;28;20205;-74
2023/02/19 11:03:50;;;;;;;6.87;2.03;;;;;;;3.59;50.32;97416.69;5011884;28;20153;-73
2023/02/19 11:06:19;;;;;;;4.95;2.22;;;;;;;4.09;49.39;97427.66;4997834;28;20059;-76
2023/02/19 11:08:51;;;;;;;2.73;1.90;;;;;;;4.36;49.90;97429.84;5014063;28;20052;-76
2023/02/19 11:11:22;;;;;;;2.60;2.40;;;;;;;4.25;47.67;97434.66;5013128;28;20053;-73
2023/02/19 11:13:48;;;;;;;1.70;1.43;;;;;;;3.26;47.11;97429.06;5011837;28;20153;-76
2023/02/19 11:16:14;;;;;;;2.93;1.97;;;;;;;2.86;46.44;97436.16;4983585;28;20459;-76
2023/02/19 11:18:41;;;;;;;6.13;3.90;;;;;;;2.55;46.76;97443.78;5000037;28;20148;-74
2023/02/19 11:21:31;;;;;;;3.20;2.90;;;;;;;2.82;47.82;97433.03;5022040;28;20191;-72
2023/02/19 11:23:59;;;;;;;2.27;1.97;;;;;;;2.60;48.77;97411.91;5024979;28;20425;-72
2023/02/19 11:26:27;;;;;;;1.53;1.43;;;;;;;2.53;47.55;97435.28;5023413;28;20055;-74
2023/02/19 11:28:58;;;;;;;6.03;3.23;;;;;;;2.46;48.09;97433.50;4992826;28;20037;-74
2023/02/19 11:31:31;;;;;;;1.63;1.53;;;;;;;2.70;48.77;97421.25;5009831;28;20036;-73
2023/02/19 11:34:01;;;;;;;6.90;3.33;;;;;;;2.73;48.64;97415.66;4992005;28;20445;-72
2023/02/19 11:36:37;;;;;;;7.73;3.20;;;;;;;2.68;47.43;97404.03;4991058;28;20051;-73
2023/02/19 11:39:20;;;;;;;6.03;3.67;;;;;;;2.72;48.62;97408.78;5023846;28;20043;-71
2023/02/19 11:42:05;;;;;;;1.80;1.70;;;;;;;2.36;50.14;97401.38;5006675;28;20030;-70
2023/02/19 11:44:54;;;;;;;3.27;2.30;;;;;;;3.12;48.27;97408.75;5023456;28;20148;-74
2023/02/19 11:47:53;;;;;;;2.83;2.17;;;;;;;3.38;49.60;97411.19;5002313;28;20266;-72
2023/02/19 11:50:52;;;;;;;5.83;2.70;;;;;;;3.38;49.59;97406.75;5007612;28;20140;-73
2023/02/19 11:53:32;;;;;;;7.33;2.70;;;;;;;3.27;47.67;97398.41;5022362;28;20427;-73
2023/02/19 11:55:58;;;;;;;5.05;3.05;;;;;;;2.47;47.33;97407.13;5021757;28;20048;-72
2023/02/19 11:59:10;;;;;;;4.20;3.47;;;;;;;3.29;48.15;97391.22;5024203;28;20125;-71
2023/02/19 12:01:54;;;;;;;2.53;2.33;;;;;;;3.33;47.34;97434.47;4985633;28;20048;-75
2023/02/19 12:04:45;;;;;;;4.60;2.93;;;;;;;3.12;46.83;97418.44;5029652;28;20045;-73
2023/02/19 12:07:36;;;;;;;6.07;3.03;;;;;;;3.30;46.63;97400.72;5037290;28;20618;-68
2023/02/19 12:10:02;;;;;;;4.53;2.73;;;;;;;2.88;48.08;97397.47;5024055;28;20579;-71
2023/02/19 12:12:35;;;;;;;2.40;1.77;;;;;;;2.56;46.89;97419.25;5037858;28;20104;-71
2023/02/19 12:15:20;;;;;;;4.20;2.87;;;;;;;2.90;48.20;97403.38;5007112;28;20049;-71